createdAt,value
2022-10-06T00:01:13.906Z,74.89
2022-10-06T00:04:16.044Z,74.62
2022-10-06T00:07:18.137Z,74.45
2022-10-06T00:10:20.132Z,74.30
2022-10-06T00:13:26.366Z,74.50
2022-10-06T00:16:28.468Z,74.50
2022-10-06T00:19:30.809Z,74.55
2022-10-06T00:22:41.749Z,74.79
2022-10-06T00:25:43.732Z,73.72
2022-10-06T00:28:49.223Z,74.66
2022-10-06T00:31:51.408Z,73.78
2022-10-06T00:34:54.321Z,73.99
2022-10-06T00:37:56.921Z,74.52
2022-10-06T00:40:58.977Z,74.10
2022-10-06T00:44:02.591Z,74.76
2022-10-06T00:47:04.598Z,74.46
2022-10-06T00:50:07.013Z,74.75
2022-10-06T00:53:09.033Z,74.06
2022-10-06T00:56:12.276Z,73.71
2022-10-06T00:59:18.796Z,74.13
2022-10-06T01:02:29.518Z,73.95
2022-10-06T01:05:37.276Z,73.85
2022-10-06T01:08:39.778Z,73.17
2022-10-06T01:11:42.589Z,74.61
2022-10-06T01:14:44.850Z,73.20
2022-10-06T01:17:55.382Z,74.51
2022-10-06T01:21:20.139Z,73.58
2022-10-06T01:24:22.257Z,73.69
2022-10-06T01:27:27.105Z,73.29
2022-10-06T01:30:33.628Z,73.28
2022-10-06T01:33:35.817Z,74.04
2022-10-06T01:36:40.686Z,73.59
2022-10-06T01:39:44.196Z,74.13
2022-10-06T01:42:46.638Z,73.14
2022-10-06T01:45:56.425Z,74.44
2022-10-06T01:48:58.575Z,74.45
2022-10-06T01:52:01.422Z,73.69
2022-10-06T01:55:05.891Z,73.36
2022-10-06T01:58:09.294Z,72.77
2022-10-06T02:01:11.604Z,73.00
2022-10-06T02:04:13.837Z,72.55
2022-10-06T02:07:16.386Z,73.67
2022-10-06T02:10:21.278Z,72.82
2022-10-06T02:13:26.128Z,73.27
2022-10-06T02:16:29.751Z,73.63
2022-10-06T02:19:32.185Z,73.24
2022-10-06T02:22:39.548Z,73.28
2022-10-06T02:25:41.633Z,73.55
2022-10-06T02:28:47.863Z,73.44
2022-10-06T02:31:55.025Z,73.75
2022-10-06T02:34:57.426Z,73.26
2022-10-06T02:37:59.851Z,73.38
2022-10-06T02:41:02.536Z,74.16
2022-10-06T02:44:05.701Z,73.21
2022-10-06T02:47:14.671Z,73.69
2022-10-06T02:50:19.149Z,73.29
2022-10-06T02:53:21.410Z,72.94
2022-10-06T02:56:25.928Z,73.25
2022-10-06T02:59:28.128Z,73.26
2022-10-06T03:02:31.185Z,73.27
2022-10-06T03:05:33.561Z,73.62
2022-10-06T03:08:36.098Z,73.94
2022-10-06T03:11:41.213Z,74.74
2022-10-06T03:14:44.799Z,78.22
2022-10-06T03:17:50.318Z,79.11
2022-10-06T03:20:54.148Z,78.08
2022-10-06T03:23:57.770Z,78.81
2022-10-06T03:27:01.813Z,78.87
2022-10-06T03:30:06.725Z,78.79
2022-10-06T03:33:11.679Z,79.66
2022-10-06T03:36:19.028Z,78.83
2022-10-06T03:39:21.274Z,79.19
2022-10-06T03:42:24.886Z,78.00
2022-10-06T03:45:28.556Z,78.76
2022-10-06T03:48:34.362Z,79.25
2022-10-06T03:51:41.710Z,78.62
2022-10-06T03:54:51.877Z,79.25
2022-10-06T03:57:53.908Z,78.40
2022-10-06T04:01:03.060Z,78.88
2022-10-06T04:04:06.812Z,78.75
2022-10-06T04:07:09.056Z,78.73
2022-10-06T04:10:11.174Z,78.70
2022-10-06T04:13:16.606Z,79.14
2022-10-06T04:16:22.503Z,79.21
2022-10-06T04:19:25.131Z,78.35
2022-10-06T04:22:29.786Z,78.24
2022-10-06T04:25:32.651Z,79.56
2022-10-06T04:28:35.437Z,79.37
2022-10-06T04:31:39.391Z,78.93
2022-10-06T04:34:43.550Z,78.11
2022-10-06T04:37:46.939Z,79.51
2022-10-06T04:40:49.344Z,79.57
2022-10-06T04:43:52.452Z,80.08
2022-10-06T04:46:54.904Z,81.97
2022-10-06T04:49:57.030Z,84.94
2022-10-06T04:52:59.835Z,89.34
2022-10-06T04:56:07.005Z,89.37
2022-10-06T04:59:11.372Z,88.57
2022-10-06T05:02:17.280Z,86.51
2022-10-06T05:05:20.469Z,96.44
2022-10-06T05:08:24.131Z,93.60
2022-10-06T05:11:28.425Z,79.54
2022-10-06T05:14:33.554Z,73.99
2022-10-06T05:17:35.728Z,74.89
2022-10-06T05:20:37.864Z,77.12
2022-10-06T05:23:42.194Z,78.02
2022-10-06T05:26:44.198Z,78.63
2022-10-06T05:29:49.230Z,78.93
2022-10-06T05:32:52.698Z,79.42
2022-10-06T05:35:56.980Z,79.47
2022-10-06T05:39:00.129Z,79.15
2022-10-06T05:42:05.432Z,79.36
2022-10-06T05:45:08.460Z,78.29
2022-10-06T05:48:10.765Z,78.38
2022-10-06T05:51:13.946Z,77.68
2022-10-06T05:54:16.761Z,76.21
2022-10-06T05:57:19.154Z,74.64
2022-10-06T06:00:21.340Z,73.54
2022-10-06T06:03:23.875Z,72.12
2022-10-06T06:06:29.783Z,71.86
2022-10-06T06:09:35.535Z,70.44
2022-10-06T06:12:39.172Z,69.31
2022-10-06T06:16:15.382Z,68.38
2022-10-06T06:19:17.683Z,67.62
2022-10-06T06:22:21.347Z,66.93
2022-10-06T06:25:26.636Z,66.82
2022-10-06T06:28:31.122Z,65.32
2022-10-06T06:31:36.486Z,65.98
2022-10-06T06:34:38.544Z,66.26
2022-10-06T06:37:42.687Z,65.75
2022-10-06T06:40:44.715Z,65.76
2022-10-06T06:43:50.045Z,65.79
2022-10-06T06:47:13.275Z,65.93
2022-10-06T06:50:17.447Z,65.78
2022-10-06T06:53:19.986Z,65.98
2022-10-06T06:56:22.853Z,65.48
2022-10-06T06:59:26.484Z,65.56
2022-10-06T07:02:31.789Z,66.66
2022-10-06T07:05:35.035Z,66.37
2022-10-06T07:08:39.626Z,67.65
2022-10-06T07:11:41.801Z,65.28
2022-10-06T07:15:07.608Z,63.98
2022-10-06T07:18:33.097Z,62.04
2022-10-06T07:21:53.619Z,60.36
2022-10-06T07:25:07.584Z,59.35
2022-10-06T07:28:12.503Z,58.76
2022-10-06T07:31:18.681Z,57.26
2022-10-06T07:34:22.767Z,57.35
2022-10-06T07:37:25.664Z,56.65
2022-10-06T07:40:27.990Z,63.50
2022-10-06T07:43:30.429Z,66.09
2022-10-06T07:46:33.551Z,67.09
2022-10-06T07:49:46.590Z,67.19
2022-10-06T07:52:56.196Z,65.50
2022-10-06T07:56:08.056Z,63.92
2022-10-06T07:59:16.348Z,63.50
2022-10-06T08:02:20.068Z,63.05
2022-10-06T08:05:24.054Z,61.48
2022-10-06T08:08:26.497Z,61.51
2022-10-06T08:11:28.712Z,60.17
2022-10-06T08:14:30.904Z,58.91
2022-10-06T08:17:34.482Z,57.98
2022-10-06T08:20:36.625Z,57.05
2022-10-06T08:23:42.543Z,57.94
2022-10-06T08:26:44.636Z,56.17
2022-10-06T08:29:47.027Z,56.72
2022-10-06T08:32:50.117Z,56.03
2022-10-06T08:35:56.439Z,56.80
2022-10-06T08:38:59.775Z,56.01
2022-10-06T08:42:01.796Z,56.49
2022-10-06T08:45:11.448Z,55.95
2022-10-06T08:48:27.026Z,55.91
2022-10-06T08:51:58.382Z,56.61
2022-10-06T08:55:29.735Z,57.29
2022-10-06T08:58:52.493Z,58.42
2022-10-06T09:01:55.073Z,57.78
2022-10-06T09:05:01.530Z,56.97
2022-10-06T09:08:34.315Z,57.38
2022-10-06T09:11:51.143Z,56.93
2022-10-06T09:15:09.859Z,57.08
2022-10-06T09:18:14.722Z,57.27
2022-10-06T09:21:25.899Z,58.98
2022-10-06T09:24:42.399Z,61.98
2022-10-06T09:27:53.309Z,64.45
2022-10-06T09:30:55.564Z,67.50
2022-10-06T09:34:23.533Z,67.96
2022-10-06T09:37:27.489Z,70.22
2022-10-06T09:40:58.983Z,73.72
2022-10-06T09:44:07.314Z,73.30
2022-10-06T09:47:29.063Z,73.41
2022-10-06T09:50:31.490Z,72.10
2022-10-06T09:53:36.853Z,71.67
2022-10-06T09:56:45.163Z,69.14
2022-10-06T09:59:48.607Z,68.05
2022-10-06T10:02:58.152Z,68.30
2022-10-06T10:06:02.407Z,68.47
2022-10-06T10:09:29.135Z,69.04
2022-10-06T10:12:34.242Z,69.11
2022-10-06T10:15:53.761Z,69.87
2022-10-06T10:18:56.196Z,69.27
2022-10-06T10:22:00.135Z,68.96
2022-10-06T10:25:25.386Z,68.16
2022-10-06T10:28:58.978Z,67.70
2022-10-06T10:32:18.784Z,68.13
2022-10-06T10:35:29.135Z,68.18
2022-10-06T10:38:32.264Z,67.74
2022-10-06T10:41:49.772Z,67.99
2022-10-06T10:45:02.109Z,67.75
2022-10-06T10:48:38.168Z,67.31
2022-10-06T10:52:15.751Z,67.51
2022-10-06T10:55:31.216Z,67.78
2022-10-06T10:58:39.151Z,66.94
2022-10-06T11:02:03.414Z,67.50
2022-10-06T11:05:33.917Z,67.56
2022-10-06T11:08:49.592Z,66.39
2022-10-06T11:11:55.495Z,67.00
2022-10-06T11:15:04.260Z,66.61
2022-10-06T11:18:37.136Z,67.10
2022-10-06T11:21:55.831Z,66.72
2022-10-06T11:25:13.891Z,66.03
2022-10-06T11:28:40.383Z,66.00
2022-10-06T11:31:59.030Z,66.96
2022-10-06T11:35:01.802Z,66.02
2022-10-06T11:38:27.193Z,66.51
2022-10-06T11:41:44.290Z,66.63
2022-10-06T11:44:53.877Z,65.87
2022-10-06T11:48:10.509Z,65.58
2022-10-06T11:51:24.970Z,65.49
2022-10-06T11:54:47.985Z,65.92
2022-10-06T11:58:12.661Z,65.41
2022-10-06T12:01:31.622Z,66.11
2022-10-06T12:04:34.963Z,65.24
2022-10-06T12:07:58.350Z,66.06
2022-10-06T12:11:00.822Z,65.90
2022-10-06T12:17:47.355Z,65.78
2022-10-06T12:21:13.972Z,64.97
2022-10-06T12:24:59.208Z,65.60
2022-10-06T12:28:35.565Z,66.06
2022-10-06T12:32:02.293Z,65.42
2022-10-06T12:35:26.385Z,64.94
2022-10-06T12:38:31.286Z,64.59
2022-10-06T12:42:02.373Z,64.53
2022-10-06T12:45:15.835Z,64.71
2022-10-06T12:48:31.214Z,65.45
2022-10-06T12:51:39.046Z,64.43
2022-10-06T12:55:07.497Z,64.44
2022-10-06T12:58:32.859Z,65.51
2022-10-06T13:01:35.038Z,65.06
2022-10-06T13:04:53.837Z,64.87
2022-10-06T13:08:01.103Z,65.87
2022-10-06T13:11:22.839Z,65.72
2022-10-06T13:14:24.870Z,65.97
2022-10-06T13:17:27.060Z,65.75
2022-10-06T13:20:49.312Z,65.79
2022-10-06T13:23:55.011Z,65.83
2022-10-06T13:26:57.475Z,66.10
2022-10-06T13:30:21.544Z,65.50
2022-10-06T13:33:30.017Z,65.54
2022-10-06T13:36:43.319Z,65.88
2022-10-06T13:39:45.460Z,65.11
2022-10-06T13:42:47.767Z,66.14
2022-10-06T13:45:49.856Z,66.52
2022-10-06T13:49:00.867Z,70.86
2022-10-06T13:52:10.123Z,71.74
2022-10-06T13:55:19.248Z,64.39
2022-10-06T13:58:24.093Z,60.25
2022-10-06T14:01:31.178Z,59.52
2022-10-06T14:04:36.001Z,59.56
2022-10-06T14:07:44.204Z,59.70
2022-10-06T14:10:56.213Z,59.41
2022-10-06T14:14:01.445Z,59.66
2022-10-06T14:17:03.741Z,60.94
2022-10-06T14:20:48.347Z,63.00
2022-10-06T14:23:52.611Z,64.37
2022-10-06T14:27:00.445Z,65.90
2022-10-06T14:30:03.006Z,65.73
2022-10-06T14:33:05.785Z,66.28
2022-10-06T14:36:15.305Z,66.74
2022-10-06T14:39:18.572Z,66.22
2022-10-06T14:42:24.545Z,67.34
2022-10-06T14:45:26.754Z,66.60
2022-10-06T14:48:29.172Z,66.36
2022-10-06T14:51:34.470Z,67.37
2022-10-06T14:54:38.402Z,67.73
2022-10-06T14:57:40.916Z,67.67
2022-10-06T15:00:44.255Z,67.07
2022-10-06T15:04:00.185Z,67.39
2022-10-06T15:07:20.830Z,67.32
2022-10-06T15:10:22.825Z,67.56
2022-10-06T15:13:24.933Z,67.36
2022-10-06T15:16:30.020Z,68.61
2022-10-06T15:19:33.937Z,67.94
2022-10-06T15:22:35.978Z,68.59
2022-10-06T15:25:56.478Z,69.11
2022-10-06T15:29:01.552Z,68.05
2022-10-06T15:32:06.645Z,69.12
2022-10-06T15:35:09.319Z,69.69
2022-10-06T15:38:11.384Z,69.62
2022-10-06T15:41:13.958Z,69.15
2022-10-06T15:44:17.008Z,68.74
2022-10-06T15:47:19.098Z,68.17
2022-10-06T15:50:21.325Z,68.84
2022-10-06T15:53:23.525Z,68.09
2022-10-06T15:56:29.804Z,68.83
2022-10-06T15:59:34.628Z,69.30
2022-10-06T16:02:37.089Z,69.32
2022-10-06T16:05:50.509Z,69.50
2022-10-06T16:08:52.458Z,69.55
2022-10-06T16:11:55.612Z,69.89
2022-10-06T16:14:57.544Z,69.63
2022-10-06T16:17:59.728Z,69.84
2022-10-06T16:21:01.798Z,69.26
2022-10-06T16:24:03.985Z,69.49
2022-10-06T16:27:06.530Z,69.59
2022-10-06T16:30:09.037Z,69.84
2022-10-06T16:33:11.161Z,69.51
2022-10-06T16:36:15.085Z,70.03
2022-10-06T16:39:23.611Z,69.55
2022-10-06T16:42:25.603Z,68.98
2022-10-06T16:45:27.683Z,69.92
2022-10-06T16:48:31.604Z,69.30
2022-10-06T16:51:36.263Z,69.85
2022-10-06T16:54:38.459Z,70.64
2022-10-06T16:57:41.164Z,69.02
2022-10-06T17:00:43.448Z,69.15
2022-10-06T17:03:46.006Z,68.74
2022-10-06T17:06:54.527Z,69.08
2022-10-06T17:10:18.855Z,68.20
2022-10-06T17:13:18.878Z,68.50
2022-10-06T17:16:26.523Z,68.76
2022-10-06T17:19:30.213Z,68.49
2022-10-06T17:22:32.486Z,67.92
2022-10-06T17:25:34.726Z,69.12
2022-10-06T17:28:38.631Z,69.38
2022-10-06T17:31:42.404Z,70.17
2022-10-06T17:34:46.032Z,70.77
2022-10-06T17:37:50.331Z,70.72
2022-10-06T17:40:52.327Z,71.70
2022-10-06T17:43:55.748Z,71.19
2022-10-06T17:47:02.852Z,71.77
2022-10-06T17:50:06.605Z,71.60
2022-10-06T17:53:08.674Z,72.32
2022-10-06T17:56:11.629Z,72.19
2022-10-06T17:59:19.083Z,72.37
2022-10-06T18:02:21.349Z,68.87
2022-10-06T18:05:24.226Z,69.30
2022-10-06T18:08:27.386Z,69.50
2022-10-06T18:11:38.520Z,70.00
2022-10-06T18:14:40.475Z,69.61
2022-10-06T18:17:42.875Z,70.34
2022-10-06T18:20:45.782Z,70.76
2022-10-06T18:23:48.698Z,70.93
2022-10-06T18:26:53.476Z,70.86
2022-10-06T18:29:55.562Z,70.95
2022-10-06T18:36:19.886Z,71.29
2022-10-06T18:39:21.990Z,71.65
2022-10-06T18:42:24.247Z,71.49
2022-10-06T18:45:45.261Z,71.20
2022-10-06T18:48:57.042Z,71.58
2022-10-06T18:51:59.054Z,71.46
2022-10-06T18:55:01.076Z,71.59
2022-10-06T18:58:04.671Z,71.65
2022-10-06T19:01:07.216Z,72.04
2022-10-06T19:04:11.179Z,72.28
2022-10-06T19:07:13.186Z,72.29
2022-10-06T19:10:15.383Z,71.58
2022-10-06T19:13:21.457Z,71.76
2022-10-06T19:16:23.725Z,71.55
2022-10-06T19:19:28.051Z,72.06
2022-10-06T19:22:30.110Z,72.43
2022-10-06T19:25:32.655Z,72.35
2022-10-06T19:28:36.644Z,71.98
2022-10-06T19:31:41.918Z,72.42
2022-10-06T19:34:44.780Z,73.01
2022-10-06T19:37:46.909Z,71.84
2022-10-06T19:40:49.603Z,72.85
2022-10-06T19:43:52.268Z,72.16
2022-10-06T19:46:55.433Z,73.55
2022-10-06T19:50:02.052Z,73.64
2022-10-06T19:53:06.558Z,74.36
2022-10-06T19:56:08.664Z,75.33
2022-10-06T19:59:15.678Z,75.29
2022-10-06T20:02:17.758Z,74.93
2022-10-06T20:05:20.115Z,75.43
2022-10-06T20:08:22.176Z,75.92
2022-10-06T20:11:24.701Z,75.33
2022-10-06T20:14:26.850Z,76.04
2022-10-06T20:17:29.059Z,75.67
2022-10-06T20:20:31.026Z,76.24
2022-10-06T20:23:33.293Z,75.63
2022-10-06T20:26:38.731Z,76.68
2022-10-06T20:29:40.874Z,76.21
2022-10-06T20:32:43.007Z,76.61
2022-10-06T20:35:45.953Z,77.05
2022-10-06T20:39:07.068Z,76.55
2022-10-06T20:42:14.726Z,76.76
2022-10-06T20:45:17.566Z,77.10
2022-10-06T20:48:20.929Z,76.86
2022-10-06T20:51:27.534Z,77.10
2022-10-06T20:54:35.076Z,77.08
2022-10-06T20:57:37.278Z,77.86
2022-10-06T21:00:39.388Z,77.10
2022-10-06T21:03:46.753Z,77.09
2022-10-06T21:06:49.132Z,77.45
2022-10-06T21:09:52.262Z,77.76
2022-10-06T21:12:56.002Z,77.25
2022-10-06T21:16:01.208Z,77.03
2022-10-06T21:19:06.367Z,77.05
2022-10-06T21:22:08.653Z,78.32
2022-10-06T21:25:10.759Z,78.08
2022-10-06T21:28:13.929Z,78.88
2022-10-06T21:31:17.890Z,77.94
2022-10-06T21:34:19.865Z,78.66
2022-10-06T21:37:22.103Z,78.27
2022-10-06T21:40:24.116Z,77.69
2022-10-06T21:43:26.081Z,78.01
2022-10-06T21:46:34.964Z,77.75
2022-10-06T21:49:37.136Z,78.06
2022-10-06T21:52:39.250Z,77.07
2022-10-06T21:55:41.401Z,77.35
2022-10-06T21:58:44.051Z,78.50
2022-10-06T22:01:47.606Z,78.35
2022-10-06T22:04:49.787Z,78.26
2022-10-06T22:07:51.752Z,78.06
2022-10-06T22:10:53.770Z,77.92
2022-10-06T22:13:58.483Z,77.32
2022-10-06T22:17:00.761Z,77.07
2022-10-06T22:20:02.871Z,77.12
2022-10-06T22:23:05.265Z,77.67
2022-10-06T22:26:08.595Z,77.35
2022-10-06T22:29:13.526Z,77.92
2022-10-06T22:32:15.465Z,77.08
2022-10-06T22:35:17.530Z,78.00
2022-10-06T22:38:19.621Z,76.92
2022-10-06T22:41:22.143Z,78.02
2022-10-06T22:44:24.473Z,77.51
2022-10-06T22:47:26.558Z,77.05
2022-10-06T22:50:28.561Z,77.91
2022-10-06T22:53:31.408Z,77.67
2022-10-06T22:56:34.293Z,77.25
2022-10-06T22:59:36.355Z,78.29
2022-10-06T23:02:38.429Z,77.38
2022-10-06T23:05:40.744Z,77.55
2022-10-06T23:08:42.811Z,77.70
2022-10-06T23:11:44.824Z,77.82
2022-10-06T23:14:46.833Z,78.00
2022-10-06T23:17:48.925Z,78.23
2022-10-06T23:20:50.932Z,78.22
2022-10-06T23:23:56.046Z,78.25
2022-10-06T23:27:04.298Z,78.31
2022-10-06T23:30:07.294Z,78.25
2022-10-06T23:33:09.261Z,78.49
2022-10-06T23:36:12.701Z,77.74
2022-10-06T23:39:15.063Z,78.05
2022-10-06T23:42:16.960Z,77.40
2022-10-06T23:45:18.919Z,77.54
2022-10-06T23:48:21.151Z,77.60
2022-10-06T23:51:23.242Z,78.06
2022-10-06T23:54:25.295Z,77.23
2022-10-06T23:57:27.247Z,77.85
